createdAt,value
2023-02-17T00:01:19.061Z,100898.30
2023-02-17T00:03:52.958Z,100901.80
2023-02-17T00:06:28.543Z,100900.95
2023-02-17T00:09:02.373Z,100902.21
2023-02-17T00:11:35.629Z,100882.98
2023-02-17T00:14:08.892Z,100890.64
2023-02-17T00:16:41.919Z,100898.98
2023-02-17T00:19:25.552Z,100888.04
2023-02-17T00:22:01.184Z,100893.65
2023-02-17T00:24:35.979Z,100896.47
2023-02-17T00:27:09.282Z,100894.79
2023-02-17T00:29:42.361Z,100892.89
2023-02-17T00:32:15.424Z,100898.42
2023-02-17T00:34:48.793Z,100875.48
2023-02-17T00:37:21.734Z,100900.71
2023-02-17T00:39:54.780Z,100896.88
2023-02-17T00:42:27.930Z,100893.56
2023-02-17T00:45:07.543Z,100893.77
2023-02-17T00:47:40.244Z,100882.52
2023-02-17T00:50:15.853Z,100894.70
2023-02-17T00:52:49.197Z,100892.41
2023-02-17T00:55:22.122Z,100877.60
2023-02-17T00:57:55.484Z,100888.04
2023-02-17T01:00:28.565Z,100886.14
2023-02-17T01:03:01.720Z,100883.52
2023-02-17T01:05:35.023Z,100885.66
2023-02-17T01:08:08.168Z,100880.44
2023-02-17T01:10:43.031Z,100870.02
2023-02-17T01:13:16.813Z,100875.21
2023-02-17T01:15:52.758Z,100877.91
2023-02-17T01:18:27.536Z,100873.90
2023-02-17T01:21:00.592Z,100858.61
2023-02-17T01:23:33.766Z,100850.66
2023-02-17T01:26:07.088Z,100874.48
2023-02-17T01:28:40.217Z,100873.10
2023-02-17T01:31:14.748Z,100876.98
2023-02-17T01:33:48.300Z,100877.67
2023-02-17T01:36:22.115Z,100876.45
2023-02-17T01:38:55.669Z,100874.02
2023-02-17T01:41:29.559Z,100867.59
2023-02-17T01:44:21.168Z,100871.23
2023-02-17T01:46:56.685Z,100871.04
2023-02-17T01:49:33.356Z,100860.80
2023-02-17T01:52:06.273Z,100856.13
2023-02-17T01:54:53.564Z,100854.77
2023-02-17T01:57:29.653Z,100836.56
2023-02-17T02:00:03.049Z,100864.52
2023-02-17T02:02:51.394Z,100847.84
2023-02-17T02:05:25.413Z,100861.77
2023-02-17T02:07:59.129Z,100861.95
2023-02-17T02:10:32.212Z,100860.39
2023-02-17T02:13:06.001Z,100858.84
2023-02-17T02:15:51.726Z,100841.16
2023-02-17T02:18:50.206Z,100856.67
2023-02-17T02:21:56.388Z,100859.85
2023-02-17T02:24:54.276Z,100854.47
2023-02-17T02:27:44.638Z,100848.73
2023-02-17T02:30:41.916Z,100852.00
2023-02-17T02:33:40.574Z,100851.76
2023-02-17T02:36:28.498Z,100839.41
2023-02-17T02:39:03.368Z,100837.84
2023-02-17T02:41:45.772Z,100856.09
2023-02-17T02:44:20.192Z,100857.82
2023-02-17T02:47:05.235Z,100850.87
2023-02-17T02:49:40.048Z,100855.53
2023-02-17T02:52:34.761Z,100854.84
2023-02-17T02:55:31.230Z,100845.27
2023-02-17T02:58:13.096Z,100829.80
2023-02-17T03:01:17.802Z,100859.92
2023-02-17T03:04:04.552Z,100849.85
2023-02-17T03:07:21.658Z,100838.05
2023-02-17T03:09:58.127Z,100850.38
2023-02-17T03:12:32.176Z,100850.38
2023-02-17T03:15:24.657Z,100872.13
2023-02-17T03:18:04.023Z,100874.41
2023-02-17T03:20:46.795Z,100876.20
2023-02-17T03:23:20.830Z,100876.40
2023-02-17T03:25:54.629Z,100876.07
2023-02-17T03:28:28.662Z,100860.09
2023-02-17T03:31:04.258Z,100860.99
2023-02-17T03:33:37.536Z,100873.16
2023-02-17T03:36:11.336Z,100855.55
2023-02-17T03:38:44.657Z,100841.30
2023-02-17T03:41:18.010Z,100832.95
2023-02-17T03:43:51.274Z,100860.59
2023-02-17T03:46:24.457Z,100844.13
2023-02-17T03:48:57.927Z,100841.67
2023-02-17T03:51:30.931Z,100858.38
2023-02-17T03:54:04.391Z,100859.09
2023-02-17T03:56:37.448Z,100848.63
2023-02-17T03:59:10.649Z,100839.94
2023-02-17T04:01:43.998Z,100854.70
2023-02-17T04:04:17.423Z,100845.09
2023-02-17T04:06:51.853Z,100845.92
2023-02-17T04:09:25.327Z,100854.59
2023-02-17T04:11:58.770Z,100855.44
2023-02-17T04:14:32.511Z,100841.73
2023-02-17T04:17:05.896Z,100852.48
2023-02-17T04:19:39.490Z,100838.56
2023-02-17T04:22:12.814Z,100849.31
2023-02-17T04:24:47.057Z,100851.75
2023-02-17T04:27:20.386Z,100852.30
2023-02-17T04:29:55.026Z,100858.06
2023-02-17T04:32:28.336Z,100856.85
2023-02-17T04:35:01.683Z,100849.59
2023-02-17T04:37:34.828Z,100864.39
2023-02-17T04:40:11.069Z,100864.04
2023-02-17T04:42:44.104Z,100869.81
2023-02-17T04:45:17.340Z,100852.06
2023-02-17T04:47:50.685Z,100840.43
2023-02-17T04:50:24.574Z,100870.84
2023-02-17T04:52:57.683Z,100866.17
2023-02-17T04:55:31.184Z,100872.11
2023-02-17T04:58:04.866Z,100857.54
2023-02-17T05:00:39.117Z,100875.80
2023-02-17T05:03:12.385Z,100872.65
2023-02-17T05:05:45.768Z,100867.27
2023-02-17T05:08:18.809Z,100866.23
2023-02-17T05:10:54.238Z,100876.32
2023-02-17T05:13:28.228Z,100864.48
2023-02-17T05:16:02.058Z,100862.86
2023-02-17T05:18:35.149Z,100879.52
2023-02-17T05:21:08.244Z,100874.13
2023-02-17T05:23:41.606Z,100871.37
2023-02-17T05:26:15.373Z,100889.45
2023-02-17T05:28:48.576Z,100883.73
2023-02-17T05:31:22.285Z,100886.52
2023-02-17T05:33:56.993Z,100879.22
2023-02-17T05:36:30.454Z,100896.24
2023-02-17T05:39:03.120Z,100899.36
2023-02-17T05:41:36.079Z,100874.10
2023-02-17T05:44:09.353Z,100895.92
2023-02-17T05:46:42.249Z,100893.41
2023-02-17T05:49:15.391Z,100898.95
2023-02-17T05:51:48.520Z,100899.95
2023-02-17T05:54:22.054Z,100886.86
2023-02-17T05:56:55.490Z,100903.30
2023-02-17T05:59:28.619Z,100902.16
2023-02-17T06:02:01.594Z,100894.98
2023-02-17T06:04:35.461Z,100894.88
2023-02-17T06:07:08.950Z,100910.83
2023-02-17T06:09:42.445Z,100913.17
2023-02-17T06:12:15.521Z,100911.33
2023-02-17T06:14:48.347Z,100915.59
2023-02-17T06:17:21.590Z,100918.48
2023-02-17T06:19:55.571Z,100918.95
2023-02-17T06:22:28.883Z,100916.58
2023-02-17T06:25:02.106Z,100920.37
2023-02-17T06:27:36.582Z,100919.77
2023-02-17T06:30:10.833Z,100922.30
2023-02-17T06:32:44.713Z,100925.35
2023-02-17T06:35:18.494Z,100918.18
2023-02-17T06:37:52.170Z,100932.52
2023-02-17T06:40:27.513Z,100936.32
2023-02-17T06:43:01.809Z,100934.86
2023-02-17T06:45:35.088Z,100940.25
2023-02-17T06:48:08.968Z,100937.73
2023-02-17T06:50:42.663Z,100938.23
2023-02-17T06:53:16.326Z,100929.71
2023-02-17T06:55:54.384Z,100941.79
2023-02-17T06:58:28.189Z,100944.54
2023-02-17T07:01:01.248Z,100949.23
2023-02-17T07:03:35.368Z,100949.91
2023-02-17T07:06:10.042Z,100955.75
2023-02-17T07:08:43.667Z,100957.27
2023-02-17T07:11:17.687Z,100960.21
2023-02-17T07:13:51.926Z,100938.08
2023-02-17T07:16:25.456Z,100937.11
2023-02-17T07:18:59.063Z,100947.66
2023-02-17T07:21:32.291Z,100951.27
2023-02-17T07:24:07.234Z,100949.44
2023-02-17T07:26:41.408Z,100957.23
2023-02-17T07:29:15.404Z,100959.09
2023-02-17T07:31:49.025Z,100955.38
2023-02-17T07:34:24.542Z,100950.29
2023-02-17T07:36:58.131Z,100941.30
2023-02-17T07:39:31.980Z,100948.02
2023-02-17T07:42:06.689Z,100965.56
2023-02-17T07:44:40.742Z,100952.84
2023-02-17T07:47:14.288Z,100954.11
2023-02-17T07:49:48.047Z,100953.52
2023-02-17T07:52:22.038Z,100958.86
2023-02-17T07:54:55.807Z,100968.32
2023-02-17T07:57:29.263Z,100967.28
2023-02-17T08:00:03.179Z,100968.54
2023-02-17T08:02:47.319Z,100967.31
2023-02-17T08:05:21.021Z,100965.84
2023-02-17T08:08:18.145Z,100965.98
2023-02-17T08:11:10.320Z,100967.63
2023-02-17T08:13:43.759Z,100962.87
2023-02-17T08:16:17.489Z,100965.17
2023-02-17T08:18:50.665Z,100952.79
2023-02-17T08:21:23.772Z,100965.46
2023-02-17T08:23:57.168Z,100964.23
2023-02-17T08:26:30.694Z,100963.34
2023-02-17T08:29:03.743Z,100966.09
2023-02-17T08:31:39.200Z,100959.10
2023-02-17T08:34:14.175Z,100962.98
2023-02-17T08:36:47.275Z,100967.21
2023-02-17T08:39:20.998Z,100968.60
2023-02-17T08:41:54.820Z,100968.92
2023-02-17T08:44:28.285Z,100971.52
2023-02-17T08:47:01.377Z,100968.81
2023-02-17T08:49:35.364Z,100957.16
2023-02-17T08:52:09.103Z,100963.66
2023-02-17T08:54:42.872Z,100951.64
2023-02-17T08:57:20.365Z,100947.89
2023-02-17T08:59:54.402Z,100957.68
2023-02-17T09:02:28.629Z,100961.61
2023-02-17T09:05:03.674Z,100955.17
2023-02-17T09:07:38.417Z,100956.59
2023-02-17T09:10:14.929Z,100959.20
2023-02-17T09:12:48.723Z,100949.11
2023-02-17T09:15:22.566Z,100963.97
2023-02-17T09:17:56.557Z,100963.56
2023-02-17T09:20:29.988Z,100958.23
2023-02-17T09:23:03.368Z,100954.68
2023-02-17T09:25:38.300Z,100942.09
2023-02-17T09:28:12.186Z,100952.44
2023-02-17T09:30:46.576Z,100949.40
2023-02-17T09:33:19.905Z,100945.63
2023-02-17T09:35:54.471Z,100934.52
2023-02-17T09:38:27.564Z,100928.71
2023-02-17T09:41:11.877Z,100930.64
2023-02-17T09:43:46.173Z,100929.61
2023-02-17T09:46:32.602Z,100926.80
2023-02-17T09:49:19.961Z,100923.89
2023-02-17T09:52:04.516Z,100909.09
2023-02-17T09:54:56.818Z,100903.82
2023-02-17T09:57:34.724Z,100914.11
2023-02-17T10:00:23.605Z,100895.91
2023-02-17T10:03:10.315Z,100887.88
2023-02-17T10:05:57.405Z,100889.38
2023-02-17T10:08:36.782Z,100887.46
2023-02-17T10:11:37.717Z,100886.15
2023-02-17T10:14:28.709Z,100884.77
2023-02-17T10:17:18.754Z,100877.60
2023-02-17T10:20:22.792Z,100871.05
2023-02-17T10:23:17.585Z,100864.20
2023-02-17T10:26:30.567Z,100859.77
2023-02-17T10:29:09.405Z,100835.42
2023-02-17T10:32:03.478Z,100854.30
2023-02-17T10:34:48.561Z,100852.80
2023-02-17T10:37:49.199Z,100856.48
2023-02-17T10:40:26.502Z,100850.73
2023-02-17T10:43:12.824Z,100848.32
2023-02-17T10:45:50.574Z,100846.23
2023-02-17T10:48:36.979Z,100833.81
2023-02-17T10:51:14.052Z,100827.64
2023-02-17T10:53:53.726Z,100838.05
2023-02-17T10:56:42.212Z,100832.08
2023-02-17T10:59:32.992Z,100826.98
2023-02-17T11:02:20.322Z,100828.41
2023-02-17T11:05:00.696Z,100826.20
2023-02-17T11:07:42.420Z,100826.08
2023-02-17T11:10:35.434Z,100821.83
2023-02-17T11:13:43.632Z,100823.59
2023-02-17T11:16:37.233Z,100807.23
2023-02-17T11:19:35.739Z,100814.14
2023-02-17T11:22:30.921Z,100809.52
2023-02-17T11:25:24.881Z,100810.25
2023-02-17T11:28:05.255Z,100798.85
2023-02-17T11:30:41.444Z,100795.92
2023-02-17T11:33:23.578Z,100804.54
2023-02-17T11:35:56.539Z,100806.20
2023-02-17T11:38:30.382Z,100798.45
2023-02-17T11:41:05.906Z,100807.40
2023-02-17T11:43:40.544Z,100803.66
2023-02-17T11:46:35.208Z,100794.23
2023-02-17T11:49:44.330Z,100793.75
2023-02-17T11:52:21.210Z,100789.19
2023-02-17T11:55:17.977Z,100788.55
2023-02-17T11:58:28.184Z,100782.60
2023-02-17T12:01:19.252Z,100783.41
2023-02-17T12:04:27.507Z,100779.80
2023-02-17T12:07:17.385Z,100770.56
2023-02-17T12:10:18.165Z,100772.52
2023-02-17T12:13:19.056Z,100766.86
2023-02-17T12:16:03.330Z,100770.19
2023-02-17T12:19:16.765Z,100772.77
2023-02-17T12:22:16.823Z,100762.05
2023-02-17T12:25:10.710Z,100763.96
2023-02-17T12:27:57.638Z,100759.48
2023-02-17T12:30:44.058Z,100758.97
2023-02-17T12:33:41.951Z,100762.68
2023-02-17T12:36:21.592Z,100761.48
2023-02-17T12:39:04.338Z,100756.08
2023-02-17T12:41:42.703Z,100742.17
2023-02-17T12:44:30.810Z,100749.85
2023-02-17T12:47:14.358Z,100740.53
2023-02-17T12:49:55.726Z,100742.70
2023-02-17T12:52:32.802Z,100749.61
2023-02-17T12:55:27.875Z,100748.98
2023-02-17T12:58:24.225Z,100744.45
2023-02-17T13:01:19.885Z,100747.02
2023-02-17T13:03:53.734Z,100743.04
2023-02-17T13:06:33.496Z,100741.85
2023-02-17T13:09:23.503Z,100746.66
2023-02-17T13:11:56.632Z,100748.65
2023-02-17T13:14:41.007Z,100745.12
2023-02-17T13:17:26.709Z,100742.15
2023-02-17T13:20:30.562Z,100740.21
2023-02-17T13:23:10.546Z,100739.38
2023-02-17T13:25:44.215Z,100737.93
2023-02-17T13:28:40.212Z,100744.24
2023-02-17T13:31:14.767Z,100741.23
2023-02-17T13:34:00.181Z,100747.43
2023-02-17T13:36:35.474Z,100735.98
2023-02-17T13:39:30.590Z,100738.13
2023-02-17T13:42:04.673Z,100740.67
2023-02-17T13:44:49.243Z,100736.23
2023-02-17T13:47:38.317Z,100734.73
2023-02-17T13:50:31.529Z,100732.33
2023-02-17T13:53:22.788Z,100731.86
2023-02-17T13:55:59.309Z,100728.27
2023-02-17T13:58:37.697Z,100731.66
2023-02-17T14:01:17.844Z,100730.27
2023-02-17T14:03:55.052Z,100715.77
2023-02-17T14:06:41.683Z,100726.18
2023-02-17T14:09:31.206Z,100721.57
2023-02-17T14:12:19.877Z,100721.73
2023-02-17T14:14:53.030Z,100720.45
2023-02-17T14:17:38.709Z,100723.42
2023-02-17T14:20:29.279Z,100717.59
2023-02-17T14:23:16.534Z,100709.73
2023-02-17T14:25:52.159Z,100715.19
2023-02-17T14:28:29.248Z,100712.64
2023-02-17T14:31:13.353Z,100712.98
2023-02-17T14:34:00.697Z,100711.11
2023-02-17T14:36:40.189Z,100710.20
2023-02-17T14:39:17.451Z,100708.84
2023-02-17T14:41:50.664Z,100707.34
2023-02-17T14:44:24.059Z,100705.61
2023-02-17T14:46:57.037Z,100707.02
2023-02-17T14:49:30.080Z,100702.55
2023-02-17T14:52:03.808Z,100707.09
2023-02-17T14:54:37.018Z,100720.73
2023-02-17T14:57:14.333Z,100722.17
2023-02-17T14:59:48.501Z,100719.98
2023-02-17T15:02:23.132Z,100719.79
2023-02-17T15:04:56.048Z,100722.52
2023-02-17T15:07:29.438Z,100718.64
2023-02-17T15:10:02.495Z,100708.39
2023-02-17T15:12:35.654Z,100702.04
2023-02-17T15:15:08.955Z,100713.77
2023-02-17T15:17:42.148Z,100715.65
2023-02-17T15:20:17.757Z,100705.09
2023-02-17T15:22:53.510Z,100714.89
2023-02-17T15:25:27.444Z,100711.70
2023-02-17T15:28:00.633Z,100707.17
2023-02-17T15:30:34.318Z,100702.69
2023-02-17T15:33:11.997Z,100712.91
2023-02-17T15:35:45.518Z,100717.20
2023-02-17T15:38:18.688Z,100718.42
2023-02-17T15:40:52.346Z,100722.77
2023-02-17T15:43:29.726Z,100710.73
2023-02-17T15:46:02.869Z,100721.12
2023-02-17T15:48:35.849Z,100723.11
2023-02-17T15:51:11.246Z,100709.54
2023-02-17T15:53:45.056Z,100712.16
2023-02-17T15:56:24.058Z,100723.77
2023-02-17T15:58:58.184Z,100723.35
2023-02-17T16:01:36.831Z,100726.41
2023-02-17T16:04:12.711Z,100718.20
2023-02-17T16:06:45.866Z,100730.77
2023-02-17T16:09:20.629Z,100738.35
2023-02-17T16:11:57.993Z,100737.21
2023-02-17T16:14:41.357Z,100737.30
2023-02-17T16:17:17.927Z,100725.98
2023-02-17T16:19:51.728Z,100737.39
2023-02-17T16:22:24.984Z,100745.06
2023-02-17T16:24:58.010Z,100742.50
2023-02-17T16:27:31.105Z,100744.73
2023-02-17T16:30:04.388Z,100739.46
2023-02-17T16:32:38.153Z,100739.73
2023-02-17T16:35:16.220Z,100740.99
2023-02-17T16:37:56.508Z,100734.77
2023-02-17T16:40:31.551Z,100737.16
2023-02-17T16:43:05.325Z,100739.10
2023-02-17T16:45:38.455Z,100735.22
2023-02-17T16:48:21.308Z,100724.20
2023-02-17T16:50:54.350Z,100733.39
2023-02-17T16:53:27.577Z,100729.23
2023-02-17T16:56:01.024Z,100702.58
2023-02-17T16:58:34.148Z,100721.68
2023-02-17T17:01:14.032Z,100730.80
2023-02-17T17:03:47.229Z,100723.13
2023-02-17T17:06:26.353Z,100722.70
2023-02-17T17:08:59.758Z,100726.69
2023-02-17T17:11:33.002Z,100725.49
2023-02-17T17:14:06.105Z,100732.80
2023-02-17T17:16:40.721Z,100732.66
2023-02-17T17:19:14.920Z,100732.03
2023-02-17T17:21:49.581Z,100726.48
2023-02-17T17:24:22.732Z,100725.78
2023-02-17T17:26:56.453Z,100729.73
2023-02-17T17:29:29.447Z,100735.91
2023-02-17T17:32:03.789Z,100734.64
2023-02-17T17:34:36.922Z,100719.13
2023-02-17T17:37:12.369Z,100735.88
2023-02-17T17:39:45.304Z,100728.88
2023-02-17T17:42:18.678Z,100731.80
2023-02-17T17:44:51.972Z,100734.74
2023-02-17T17:47:30.134Z,100732.52
2023-02-17T17:50:06.108Z,100725.55
2023-02-17T17:52:39.432Z,100718.52
2023-02-17T17:55:13.771Z,100717.64
2023-02-17T17:57:48.798Z,100718.35
2023-02-17T18:00:22.301Z,100713.45
2023-02-17T18:02:55.561Z,100696.84
2023-02-17T18:05:28.853Z,100703.69
2023-02-17T18:08:02.388Z,100697.42
2023-02-17T18:10:36.290Z,100693.68
2023-02-17T18:13:12.353Z,100689.67
2023-02-17T18:15:46.108Z,100685.54
2023-02-17T18:18:20.274Z,100669.69
2023-02-17T18:20:53.572Z,100670.23
2023-02-17T18:23:26.758Z,100671.50
2023-02-17T18:25:59.895Z,100671.36
2023-02-17T18:28:32.727Z,100672.79
2023-02-17T18:31:12.388Z,100666.27
2023-02-17T18:33:46.913Z,100649.54
2023-02-17T18:36:23.777Z,100671.05
2023-02-17T18:38:57.282Z,100661.87
2023-02-17T18:41:33.396Z,100665.45
2023-02-17T18:44:07.180Z,100650.00
2023-02-17T18:46:40.966Z,100645.88
2023-02-17T18:49:14.338Z,100641.45
2023-02-17T18:51:48.519Z,100643.91
2023-02-17T18:54:22.178Z,100647.63
2023-02-17T18:56:59.163Z,100648.66
2023-02-17T18:59:33.917Z,100634.30
2023-02-17T19:02:10.943Z,100645.30
2023-02-17T19:04:46.601Z,100648.66
2023-02-17T19:07:20.079Z,100643.98
2023-02-17T19:09:55.239Z,100630.66
2023-02-17T19:12:29.012Z,100645.14
2023-02-17T19:15:04.437Z,100648.57
2023-02-17T19:17:37.893Z,100633.39
2023-02-17T19:20:11.829Z,100652.92
2023-02-17T19:22:44.824Z,100655.17
2023-02-17T19:25:24.921Z,100649.86
2023-02-17T19:27:58.615Z,100643.69
2023-02-17T19:30:32.603Z,100642.98
2023-02-17T19:33:05.949Z,100640.05
2023-02-17T19:35:43.458Z,100617.36
2023-02-17T19:38:16.728Z,100639.58
2023-02-17T19:40:50.018Z,100637.21
2023-02-17T19:43:26.374Z,100636.78
2023-02-17T19:45:59.639Z,100636.83
2023-02-17T19:48:33.555Z,100632.14
2023-02-17T19:51:09.964Z,100626.06
2023-02-17T19:53:43.702Z,100621.64
2023-02-17T19:56:19.657Z,100610.20
2023-02-17T19:58:53.402Z,100603.80
2023-02-17T20:01:31.004Z,100607.06
2023-02-17T20:04:06.233Z,100605.83
2023-02-17T20:06:44.958Z,100600.45
2023-02-17T20:09:20.588Z,100584.14
2023-02-17T20:11:54.095Z,100595.80
2023-02-17T20:14:27.590Z,100580.77
2023-02-17T20:17:01.411Z,100591.56
2023-02-17T20:19:35.188Z,100586.20
2023-02-17T20:22:09.874Z,100579.47
2023-02-17T20:24:43.245Z,100567.76
2023-02-17T20:27:16.463Z,100563.80
2023-02-17T20:29:49.541Z,100565.63
2023-02-17T20:32:22.882Z,100566.58
2023-02-17T20:34:56.058Z,100557.63
2023-02-17T20:37:28.947Z,100554.15
2023-02-17T20:40:04.183Z,100552.29
2023-02-17T20:42:37.273Z,100551.27
2023-02-17T20:45:10.506Z,100545.13
2023-02-17T20:47:43.449Z,100544.08
2023-02-17T20:50:21.764Z,100537.55
2023-02-17T20:52:54.936Z,100530.91
2023-02-17T20:55:28.792Z,100507.91
2023-02-17T20:58:02.181Z,100510.34
2023-02-17T21:00:35.135Z,100522.75
2023-02-17T21:03:08.967Z,100511.15
2023-02-17T21:05:42.580Z,100517.52
2023-02-17T21:08:16.014Z,100513.70
2023-02-17T21:10:50.172Z,100511.34
2023-02-17T21:13:23.560Z,100506.80
2023-02-17T21:15:56.637Z,100487.80
2023-02-17T21:18:29.719Z,100498.23
2023-02-17T21:21:02.884Z,100482.39
2023-02-17T21:23:36.516Z,100498.29
2023-02-17T21:26:11.611Z,100492.52
2023-02-17T21:28:45.607Z,100477.94
2023-02-17T21:31:19.824Z,100495.35
2023-02-17T21:33:53.124Z,100491.17
2023-02-17T21:36:28.963Z,100489.63
2023-02-17T21:39:04.771Z,100491.27
2023-02-17T21:41:37.956Z,100478.25
2023-02-17T21:44:31.962Z,100490.40
2023-02-17T21:47:05.400Z,100487.15
2023-02-17T21:49:39.044Z,100481.29
2023-02-17T21:52:12.041Z,100475.82
2023-02-17T21:54:45.452Z,100467.09
2023-02-17T21:57:18.687Z,100467.08
2023-02-17T21:59:52.109Z,100455.67
2023-02-17T22:02:25.690Z,100465.05
2023-02-17T22:04:59.126Z,100463.81
2023-02-17T22:07:32.222Z,100458.89
2023-02-17T22:10:08.105Z,100449.34
2023-02-17T22:12:41.387Z,100448.37
2023-02-17T22:15:18.124Z,100445.44
2023-02-17T22:17:51.042Z,100434.91
2023-02-17T22:20:25.058Z,100433.80
2023-02-17T22:22:58.548Z,100428.94
2023-02-17T22:25:32.282Z,100420.88
2023-02-17T22:28:05.223Z,100413.17
2023-02-17T22:30:38.687Z,100407.72
2023-02-17T22:33:12.034Z,100401.39
2023-02-17T22:35:45.034Z,100399.05
2023-02-17T22:38:18.538Z,100374.77
2023-02-17T22:40:51.706Z,100386.94
2023-02-17T22:43:25.658Z,100388.80
2023-02-17T22:46:02.176Z,100370.34
2023-02-17T22:48:37.058Z,100383.90
2023-02-17T22:51:15.626Z,100382.73
2023-02-17T22:53:49.213Z,100374.77
2023-02-17T22:56:23.341Z,100369.96
2023-02-17T22:59:01.605Z,100382.60
2023-02-17T23:01:36.945Z,100371.30
2023-02-17T23:04:13.922Z,100368.39
2023-02-17T23:06:47.252Z,100365.05
2023-02-17T23:09:21.662Z,100348.65
2023-02-17T23:11:58.322Z,100359.05
2023-02-17T23:14:36.348Z,100341.63
2023-02-17T23:17:13.470Z,100360.33
2023-02-17T23:19:48.108Z,100346.52
2023-02-17T23:22:21.613Z,100353.72
2023-02-17T23:24:55.014Z,100348.98
2023-02-17T23:27:28.596Z,100356.94
2023-02-17T23:30:01.364Z,100352.02
2023-02-17T23:32:35.678Z,100350.39
2023-02-17T23:35:09.290Z,100352.00
2023-02-17T23:37:42.675Z,100333.55
2023-02-17T23:40:16.796Z,100325.43
2023-02-17T23:42:49.855Z,100334.13
2023-02-17T23:45:23.357Z,100336.98
2023-02-17T23:47:56.925Z,100330.80
2023-02-17T23:50:30.587Z,100329.45
2023-02-17T23:53:04.209Z,100335.02
2023-02-17T23:55:37.457Z,100328.73
2023-02-17T23:58:11.184Z,100333.24
